Crni Vrh, Serbia
Current Conditions -  °F | °C
As of 11:00 PM on Tuesday 27 Jan 2015 (Local Time) from LYNI Reporting Station
Broken Clouds Broken Clouds  
Wind Chill: 25°   Ceiling: 1700
Heat Index: 34°   Visibility: 6mi
Dew Point: 32°   Wind: 13mph
Humidity: 93%   Direction: 330°NNW
Pressure: 29.91"   Gusts: NA
Location:  44.12°N, 21.95°E
Report Text: LYNI 272100Z 33011KT 9999 SCT006 BKN017 01/00 Q1013 R11/2///95
Loading
Personal Weather Stations






























Interactive Weather Map New forecast layout! Learn more

10-Day Weather Forecast

Advertisements
Track Severe Weather on mobile